createdAt,value
2018-12-16T00:00:25.385Z,30.97
2018-12-16T00:02:51.349Z,27.30
2018-12-16T00:05:17.515Z,27.53
2018-12-16T00:07:43.371Z,28.70
2018-12-16T00:10:09.332Z,31.27
2018-12-16T00:12:35.198Z,29.60
2018-12-16T00:15:01.068Z,35.17
2018-12-16T00:17:26.903Z,35.17
2018-12-16T00:19:52.846Z,38.43
2018-12-16T00:22:19.251Z,30.57
2018-12-16T00:24:45.333Z,35.23
2018-12-16T00:27:11.940Z,47.00
2018-12-16T00:29:37.958Z,42.63
2018-12-16T00:32:04.576Z,33.90
2018-12-16T00:34:30.573Z,31.50
2018-12-16T00:36:56.449Z,32.40
2018-12-16T00:39:22.464Z,30.50
2018-12-16T00:41:48.306Z,36.20
2018-12-16T00:44:14.294Z,37.73
2018-12-16T00:46:40.355Z,39.37
2018-12-16T00:49:06.231Z,27.93
2018-12-16T00:51:32.209Z,35.70
2018-12-16T00:53:58.100Z,36.27
2018-12-16T00:56:23.983Z,29.97
2018-12-16T00:58:49.831Z,32.93
2018-12-16T01:01:15.839Z,31.43
2018-12-16T01:03:41.737Z,32.60
2018-12-16T01:06:07.663Z,30.67
2018-12-16T01:08:33.530Z,34.17
2018-12-16T01:10:59.394Z,31.23
2018-12-16T01:13:25.237Z,31.37
2018-12-16T01:15:51.082Z,32.97
2018-12-16T01:18:16.941Z,29.80
2018-12-16T01:20:42.865Z,32.80
2018-12-16T01:23:08.726Z,32.53
2018-12-16T01:25:34.638Z,29.63
2018-12-16T01:28:00.493Z,26.90
2018-12-16T01:30:26.445Z,33.20
2018-12-16T01:32:52.496Z,33.20
2018-12-16T01:35:18.397Z,34.17
2018-12-16T01:37:44.345Z,29.30
2018-12-16T01:40:10.476Z,25.93
2018-12-16T01:42:36.405Z,27.47
2018-12-16T01:45:02.678Z,32.33
2018-12-16T01:47:28.542Z,29.33
2018-12-16T01:49:54.584Z,23.07
2018-12-16T01:52:20.478Z,26.27
2018-12-16T01:54:46.294Z,26.90
2018-12-16T01:57:12.355Z,20.70
2018-12-16T01:59:38.318Z,23.97
2018-12-16T02:02:04.432Z,30.30
2018-12-16T02:04:30.305Z,28.40
2018-12-16T02:06:56.145Z,22.57
2018-12-16T02:09:21.998Z,24.90
2018-12-16T02:11:47.830Z,26.10
2018-12-16T02:14:13.696Z,21.90
2018-12-16T02:16:39.547Z,27.93
2018-12-16T02:19:05.480Z,27.60
2018-12-16T02:21:31.350Z,37.40
2018-12-16T02:23:57.210Z,26.00
2018-12-16T02:26:23.102Z,29.13
2018-12-16T02:28:48.953Z,25.03
2018-12-16T02:31:14.805Z,25.87
2018-12-16T02:33:40.684Z,31.13
2018-12-16T02:36:06.556Z,28.33
2018-12-16T02:38:32.446Z,25.83
2018-12-16T02:40:58.302Z,34.33
2018-12-16T02:43:24.185Z,28.43
2018-12-16T02:45:50.057Z,27.93
2018-12-16T02:48:15.966Z,26.20
2018-12-16T02:50:41.824Z,31.70
2018-12-16T02:53:07.709Z,25.50
2018-12-16T02:55:33.666Z,27.80
2018-12-16T02:57:59.532Z,23.27
2018-12-16T03:00:25.403Z,31.00
2018-12-16T03:02:51.359Z,28.93
2018-12-16T03:05:17.230Z,28.17
2018-12-16T03:07:43.203Z,26.13
2018-12-16T03:10:09.129Z,33.30
2018-12-16T03:12:34.986Z,36.77
2018-12-16T03:15:00.969Z,29.37
2018-12-16T03:17:26.838Z,24.43
2018-12-16T03:19:52.752Z,34.43
2018-12-16T03:22:18.596Z,25.47
2018-12-16T03:24:44.481Z,25.50
2018-12-16T03:27:10.395Z,29.80
2018-12-16T03:29:36.446Z,25.90
2018-12-16T03:32:02.418Z,34.83
2018-12-16T03:34:28.374Z,32.87
2018-12-16T03:37:01.133Z,25.20
2018-12-16T03:39:26.963Z,35.87
2018-12-16T03:41:52.882Z,27.27
2018-12-16T03:44:18.762Z,27.43
2018-12-16T03:46:44.957Z,28.83
2018-12-16T03:49:10.829Z,26.13
2018-12-16T03:51:36.698Z,34.27
2018-12-16T03:54:02.684Z,27.20
2018-12-16T03:56:28.583Z,27.73
2018-12-16T03:59:06.846Z,23.53
2018-12-16T04:01:32.737Z,27.63
2018-12-16T04:03:58.664Z,30.73
2018-12-16T04:06:24.614Z,24.20
2018-12-16T04:08:57.443Z,26.60
2018-12-16T04:11:23.302Z,26.27
2018-12-16T04:13:49.158Z,24.80
2018-12-16T04:16:15.018Z,25.70
2018-12-16T04:18:47.981Z,28.70
2018-12-16T04:21:13.842Z,25.80
2018-12-16T04:23:39.747Z,28.47
2018-12-16T04:26:05.596Z,20.03
2018-12-16T04:28:38.757Z,31.57
2018-12-16T04:31:04.646Z,28.70
2018-12-16T04:33:30.543Z,29.60
2018-12-16T04:35:56.405Z,26.40
2018-12-16T04:38:22.374Z,32.23
2018-12-16T04:40:48.290Z,34.63
2018-12-16T04:43:14.149Z,29.23
2018-12-16T04:45:40.074Z,29.57
2018-12-16T04:48:05.957Z,30.90
2018-12-16T04:50:32.139Z,30.17
2018-12-16T04:52:57.982Z,36.23
2018-12-16T04:55:23.841Z,26.63
2018-12-16T04:57:49.836Z,26.07
2018-12-16T05:00:15.979Z,34.37
2018-12-16T05:02:41.833Z,28.87
2018-12-16T05:05:07.890Z,26.53
2018-12-16T05:07:33.737Z,27.67
2018-12-16T05:10:12.302Z,31.67
2018-12-16T05:12:38.139Z,36.17
2018-12-16T05:15:04.093Z,32.77
2018-12-16T05:17:29.928Z,33.47
2018-12-16T05:19:55.811Z,32.23
2018-12-16T05:22:21.651Z,30.90
2018-12-16T05:24:47.561Z,27.93
2018-12-16T05:27:13.520Z,35.27
2018-12-16T05:29:39.358Z,28.80
2018-12-16T05:32:05.213Z,30.50
2018-12-16T05:34:31.038Z,38.77
2018-12-16T05:36:56.880Z,28.43
2018-12-16T05:39:22.809Z,32.50
2018-12-16T05:41:48.670Z,32.40
2018-12-16T05:44:14.553Z,35.13
2018-12-16T05:46:40.378Z,32.17
2018-12-16T05:49:06.242Z,33.07
2018-12-16T05:51:32.080Z,34.17
2018-12-16T05:53:57.930Z,32.87
2018-12-16T05:56:23.872Z,30.83
2018-12-16T05:58:49.706Z,30.90
2018-12-16T06:01:15.592Z,25.97
2018-12-16T06:03:41.454Z,35.10
2018-12-16T06:06:07.321Z,31.63
2018-12-16T06:08:33.170Z,31.70
2018-12-16T06:10:59.052Z,35.67
2018-12-16T06:13:24.962Z,37.40
2018-12-16T06:15:50.881Z,32.20
2018-12-16T06:18:16.791Z,39.60
2018-12-16T06:20:42.797Z,58.60
2018-12-16T06:23:08.950Z,49.43
2018-12-16T06:25:34.822Z,45.40
2018-12-16T06:28:00.681Z,36.20
2018-12-16T06:30:27.507Z,33.80
2018-12-16T06:32:53.343Z,31.67
2018-12-16T06:35:19.215Z,29.33
2018-12-16T06:37:45.073Z,34.63
2018-12-16T06:40:10.958Z,27.23
2018-12-16T06:42:36.811Z,33.80
2018-12-16T06:45:03.865Z,35.83
2018-12-16T06:47:29.717Z,40.33
2018-12-16T06:49:55.551Z,40.63
2018-12-16T06:52:21.424Z,32.53
2018-12-16T06:54:47.262Z,32.37
2018-12-16T06:57:13.141Z,29.70
2018-12-16T06:59:39.109Z,34.27
2018-12-16T07:02:05.020Z,31.07
2018-12-16T07:04:30.878Z,32.60
2018-12-16T07:06:56.740Z,35.27
2018-12-16T07:09:22.595Z,38.77
2018-12-16T07:11:48.678Z,29.40
2018-12-16T07:14:14.674Z,23.03
2018-12-16T07:16:40.728Z,32.13
2018-12-16T07:19:06.734Z,35.90
2018-12-16T07:21:32.671Z,31.53
2018-12-16T07:23:58.693Z,34.13
2018-12-16T07:26:24.613Z,33.87
2018-12-16T07:28:50.542Z,35.33
2018-12-16T07:31:16.477Z,29.57
2018-12-16T07:33:42.437Z,34.00
2018-12-16T07:36:08.339Z,38.33
2018-12-16T07:38:34.230Z,29.60
2018-12-16T07:41:00.082Z,34.90
2018-12-16T07:43:25.984Z,25.47
2018-12-16T07:45:51.829Z,29.37
2018-12-16T07:48:18.251Z,35.00
2018-12-16T07:50:44.272Z,32.43
2018-12-16T07:53:10.160Z,29.93
2018-12-16T07:55:36.059Z,25.53
2018-12-16T07:58:02.152Z,25.07
2018-12-16T08:00:28.118Z,28.13
2018-12-16T08:02:53.955Z,30.40
2018-12-16T08:05:19.979Z,31.17
2018-12-16T08:07:45.874Z,36.60
2018-12-16T08:10:11.707Z,25.80
2018-12-16T08:12:37.649Z,34.37
2018-12-16T08:15:04.330Z,37.87
2018-12-16T08:17:30.226Z,33.10
2018-12-16T08:19:56.122Z,29.47
2018-12-16T08:22:22.010Z,28.30
2018-12-16T08:24:47.835Z,33.37
2018-12-16T08:27:13.706Z,30.43
2018-12-16T08:29:39.586Z,32.30
2018-12-16T08:32:05.479Z,26.47
2018-12-16T08:34:31.333Z,28.10
2018-12-16T08:36:57.232Z,36.00
2018-12-16T08:39:23.062Z,30.27
2018-12-16T08:41:55.989Z,31.40
2018-12-16T08:44:21.877Z,36.73
2018-12-16T08:46:47.751Z,29.47
2018-12-16T08:49:13.650Z,36.60
2018-12-16T08:51:39.505Z,32.70
2018-12-16T08:54:05.389Z,36.17
2018-12-16T08:56:31.297Z,33.57
2018-12-16T08:58:57.194Z,33.37
2018-12-16T09:01:23.088Z,42.80
2018-12-16T09:03:49.490Z,33.53
2018-12-16T09:06:15.450Z,26.47
2018-12-16T09:08:41.646Z,29.73
2018-12-16T09:11:07.527Z,32.47
2018-12-16T09:13:33.524Z,34.17
2018-12-16T09:15:59.425Z,32.27
2018-12-16T09:18:25.385Z,29.43
2018-12-16T09:23:43.959Z,26.07
2018-12-16T09:26:10.343Z,26.97
2018-12-16T09:28:36.334Z,24.97
2018-12-16T09:31:02.298Z,30.20
2018-12-16T09:33:28.257Z,27.37
2018-12-16T09:35:54.241Z,27.23
2018-12-16T09:38:20.171Z,27.47
2018-12-16T09:40:46.046Z,28.23
2018-12-16T09:43:13.189Z,29.17
2018-12-16T09:45:39.098Z,25.93
2018-12-16T09:48:05.017Z,32.60
2018-12-16T09:50:30.983Z,35.00
2018-12-16T09:53:03.798Z,27.90
2018-12-16T09:55:29.667Z,31.60
2018-12-16T09:57:55.522Z,24.57
2018-12-16T10:00:21.382Z,29.10
2018-12-16T10:02:47.255Z,22.33
2018-12-16T10:05:13.387Z,34.60
2018-12-16T10:07:40.252Z,29.33
2018-12-16T10:10:07.235Z,31.47
2018-12-16T10:12:34.134Z,32.37
2018-12-16T10:15:00.020Z,29.40
2018-12-16T10:17:25.906Z,26.27
2018-12-16T10:19:51.855Z,28.10
2018-12-16T10:22:17.698Z,27.80
2018-12-16T10:24:43.614Z,27.77
2018-12-16T10:27:09.475Z,30.10
2018-12-16T10:29:35.541Z,28.40
2018-12-16T10:32:01.389Z,26.67
2018-12-16T10:34:27.269Z,23.20
2018-12-16T10:36:53.236Z,29.23
2018-12-16T10:39:19.135Z,20.13
2018-12-16T10:41:44.985Z,22.80
2018-12-16T10:44:11.003Z,23.20
2018-12-16T10:46:36.866Z,18.40
2018-12-16T10:49:04.876Z,25.97
2018-12-16T10:51:30.838Z,22.50
2018-12-16T10:53:56.713Z,18.77
2018-12-16T10:56:22.592Z,22.40
2018-12-16T10:58:48.523Z,20.40
2018-12-16T11:01:20.479Z,18.47
2018-12-16T11:03:46.315Z,26.40
2018-12-16T11:06:12.176Z,24.77
2018-12-16T11:08:38.742Z,42.43
2018-12-16T11:11:04.655Z,55.57
2018-12-16T11:13:30.601Z,25.23
2018-12-16T11:16:03.468Z,20.17
2018-12-16T11:18:29.366Z,19.10
2018-12-16T11:20:55.237Z,20.40
2018-12-16T11:23:21.129Z,19.97
2018-12-16T11:25:47.087Z,21.63
2018-12-16T11:28:12.943Z,23.50
2018-12-16T11:30:38.947Z,24.57
2018-12-16T11:33:04.924Z,17.90
2018-12-16T11:35:30.838Z,21.57
2018-12-16T11:37:56.691Z,23.93
2018-12-16T11:40:22.581Z,25.07
2018-12-16T11:42:48.427Z,20.30
2018-12-16T11:45:14.283Z,26.03
2018-12-16T11:47:40.146Z,25.67
2018-12-16T11:50:06.185Z,21.13
2018-12-16T11:52:32.055Z,25.60
2018-12-16T11:54:57.907Z,20.83
2018-12-16T11:57:23.750Z,22.33
2018-12-16T11:59:49.661Z,28.77
2018-12-16T12:02:15.601Z,24.03
2018-12-16T12:04:41.450Z,28.23
2018-12-16T12:07:07.298Z,23.03
2018-12-16T12:09:33.161Z,30.80
2018-12-16T12:11:59.434Z,33.97
2018-12-16T12:14:26.177Z,26.57
2018-12-16T12:16:52.206Z,23.50
2018-12-16T12:19:18.604Z,35.37
2018-12-16T12:21:44.830Z,33.27
2018-12-16T12:24:10.694Z,32.13
2018-12-16T12:26:36.552Z,31.43
2018-12-16T12:29:02.416Z,24.63
2018-12-16T12:31:28.379Z,25.50
2018-12-16T12:33:54.228Z,31.63
2018-12-16T12:36:20.074Z,24.63
2018-12-16T12:38:47.983Z,23.33
2018-12-16T12:41:16.090Z,34.53
2018-12-16T12:43:41.972Z,27.80
2018-12-16T12:46:08.858Z,31.90
2018-12-16T12:48:34.766Z,32.53
2018-12-16T12:51:00.663Z,25.43
2018-12-16T12:53:26.491Z,26.93
2018-12-16T12:55:53.188Z,32.10
2018-12-16T12:58:19.083Z,26.80
2018-12-16T13:00:44.998Z,26.47
2018-12-16T13:03:10.857Z,26.80
2018-12-16T13:05:37.092Z,29.57
2018-12-16T13:08:03.388Z,24.30
2018-12-16T13:10:29.313Z,58.93
2018-12-16T13:12:57.170Z,33.10
2018-12-16T13:15:23.232Z,32.30
2018-12-16T13:17:49.139Z,27.30
2018-12-16T13:20:15.265Z,32.27
2018-12-16T13:22:41.185Z,29.17
2018-12-16T13:25:19.458Z,30.17
2018-12-16T13:27:45.330Z,32.33
2018-12-16T13:30:11.259Z,26.73
2018-12-16T13:32:37.215Z,30.37
2018-12-16T13:35:04.302Z,30.20
2018-12-16T13:37:31.123Z,25.53
2018-12-16T13:39:57.236Z,33.97
2018-12-16T13:42:26.026Z,33.00
2018-12-16T13:44:52.309Z,33.37
2018-12-16T13:47:18.259Z,33.83
2018-12-16T13:49:44.141Z,31.23
2018-12-16T13:52:10.018Z,29.53
2018-12-16T13:54:35.926Z,34.47
2018-12-16T13:57:01.787Z,30.33
2018-12-16T13:59:27.623Z,27.10
2018-12-16T14:01:54.706Z,29.30
2018-12-16T14:04:20.570Z,29.23
2018-12-16T14:06:46.428Z,38.60
2018-12-16T14:09:12.320Z,31.10
2018-12-16T14:11:38.175Z,31.20
2018-12-16T14:14:04.067Z,36.40
2018-12-16T14:16:30.078Z,31.13
2018-12-16T14:18:55.960Z,32.87
2018-12-16T14:21:21.834Z,28.77
2018-12-16T14:23:47.746Z,37.83
2018-12-16T14:26:13.623Z,32.23
2018-12-16T14:28:39.502Z,31.43
2018-12-16T14:31:05.492Z,29.40
2018-12-16T14:33:31.426Z,33.93
2018-12-16T14:35:57.308Z,32.00
2018-12-16T14:38:23.738Z,27.10
2018-12-16T14:40:49.655Z,30.17
2018-12-16T14:43:15.547Z,32.63
2018-12-16T14:45:42.028Z,37.20
2018-12-16T14:48:08.024Z,29.57
2018-12-16T14:50:33.905Z,34.27
2018-12-16T14:52:59.810Z,38.83
2018-12-16T14:55:25.769Z,39.43
2018-12-16T14:57:51.663Z,32.60
2018-12-16T15:00:17.662Z,32.20
2018-12-16T15:02:43.583Z,32.87
2018-12-16T15:05:09.616Z,40.53
2018-12-16T15:07:35.490Z,37.47
2018-12-16T15:10:02.013Z,38.70
2018-12-16T15:12:28.169Z,36.57
2018-12-16T15:14:54.163Z,35.10
2018-12-16T15:17:20.163Z,34.10
2018-12-16T15:19:46.058Z,41.93
2018-12-16T15:22:12.005Z,37.77
2018-12-16T15:24:37.984Z,42.30
2018-12-16T15:27:03.874Z,37.70
2018-12-16T15:29:29.751Z,39.90
2018-12-16T15:31:55.594Z,36.00
2018-12-16T15:34:21.528Z,32.87
2018-12-16T15:36:47.390Z,39.37
2018-12-16T15:39:13.262Z,34.43
2018-12-16T15:41:39.175Z,32.67
2018-12-16T15:44:05.094Z,39.03
2018-12-16T15:46:31.037Z,42.80
2018-12-16T15:48:56.897Z,40.83
2018-12-16T15:51:22.802Z,34.93
2018-12-16T15:53:48.681Z,45.60
2018-12-16T15:56:14.584Z,43.70
2018-12-16T15:58:40.651Z,36.93
2018-12-16T16:01:06.568Z,44.97
2018-12-16T16:03:32.554Z,44.77
2018-12-16T16:05:58.543Z,48.77
2018-12-16T16:08:24.427Z,40.30
2018-12-16T16:10:50.300Z,46.87
2018-12-16T16:13:16.183Z,41.67
2018-12-16T16:15:42.085Z,36.23
2018-12-16T16:18:07.930Z,45.30
2018-12-16T16:20:33.783Z,42.67
2018-12-16T16:22:59.862Z,39.90
2018-12-16T16:25:25.887Z,43.27
2018-12-16T16:27:51.801Z,44.57
2018-12-16T16:30:17.708Z,43.53
2018-12-16T16:32:43.564Z,36.83
2018-12-16T16:35:09.490Z,38.07
2018-12-16T16:37:35.392Z,35.47
2018-12-16T16:40:01.256Z,46.40
2018-12-16T16:42:27.138Z,43.80
2018-12-16T16:44:53.039Z,43.83
2018-12-16T16:47:18.947Z,42.13
2018-12-16T16:49:44.846Z,42.53
2018-12-16T16:52:10.904Z,38.83
2018-12-16T16:54:36.782Z,40.93
2018-12-16T16:57:02.644Z,41.87
2018-12-16T16:59:28.516Z,35.00
2018-12-16T17:01:54.373Z,36.10
2018-12-16T17:04:20.222Z,38.17
2018-12-16T17:06:46.086Z,36.80
2018-12-16T17:09:12.097Z,41.30
2018-12-16T17:11:37.986Z,42.93
2018-12-16T17:14:03.839Z,43.07
2018-12-16T17:16:29.819Z,40.87
2018-12-16T17:18:57.524Z,34.70
2018-12-16T17:21:23.728Z,42.40
2018-12-16T17:23:49.619Z,36.50
2018-12-16T17:26:15.508Z,36.23
2018-12-16T17:28:41.374Z,41.33
2018-12-16T17:31:07.289Z,40.40
2018-12-16T17:33:33.183Z,41.47
2018-12-16T17:35:59.184Z,38.60
2018-12-16T17:38:25.193Z,45.33
2018-12-16T17:40:51.181Z,33.13
2018-12-16T17:43:17.235Z,39.80
2018-12-16T17:45:43.133Z,40.00
2018-12-16T17:48:09.018Z,32.70
2018-12-16T17:50:34.972Z,34.60
2018-12-16T17:53:00.853Z,32.23
2018-12-16T17:55:26.709Z,33.73
2018-12-16T17:57:52.595Z,35.87
2018-12-16T18:00:18.866Z,39.57
2018-12-16T18:02:44.844Z,45.10
2018-12-16T18:05:10.763Z,42.07
2018-12-16T18:07:36.650Z,36.77
2018-12-16T18:10:03.420Z,41.40
2018-12-16T18:12:29.283Z,40.53
2018-12-16T18:14:55.155Z,43.23
2018-12-16T18:17:21.010Z,32.80
2018-12-16T18:19:46.887Z,42.20
2018-12-16T18:22:14.187Z,33.37
2018-12-16T18:24:40.386Z,35.43
2018-12-16T18:27:06.351Z,43.73
2018-12-16T18:29:32.269Z,40.43
2018-12-16T18:31:58.212Z,45.93
2018-12-16T18:34:24.641Z,36.43
2018-12-16T18:36:50.540Z,43.53
2018-12-16T18:39:16.390Z,37.80
2018-12-16T18:41:42.676Z,40.67
2018-12-16T18:44:08.554Z,39.63
2018-12-16T18:46:34.457Z,36.47
2018-12-16T18:49:00.409Z,33.70
2018-12-16T18:51:26.273Z,34.40
2018-12-16T18:53:52.123Z,36.37
2018-12-16T18:56:17.999Z,38.03
2018-12-16T18:58:43.880Z,36.33
2018-12-16T19:01:09.761Z,38.60
2018-12-16T19:03:35.668Z,36.03
2018-12-16T19:06:01.570Z,39.83
2018-12-16T19:08:27.495Z,33.70
2018-12-16T19:10:53.444Z,35.10
2018-12-16T19:13:19.366Z,35.70
2018-12-16T19:15:45.267Z,28.43
2018-12-16T19:18:11.214Z,36.17
2018-12-16T19:20:37.124Z,35.40
2018-12-16T19:23:03.153Z,36.77
2018-12-16T19:25:29.620Z,36.53
2018-12-16T19:27:55.531Z,34.73
2018-12-16T19:30:21.451Z,42.20
2018-12-16T19:32:47.331Z,41.63
2018-12-16T19:35:13.311Z,43.57
2018-12-16T19:37:39.186Z,35.77
2018-12-16T19:40:05.224Z,37.10
2018-12-16T19:42:31.098Z,43.13
2018-12-16T19:44:56.993Z,35.50
2018-12-16T19:47:22.891Z,42.27
2018-12-16T19:49:48.762Z,47.57
2018-12-16T19:52:14.671Z,48.07
2018-12-16T19:54:40.980Z,50.17
2018-12-16T19:57:07.576Z,44.63
2018-12-16T19:59:33.468Z,43.60
2018-12-16T20:04:58.432Z,46.57
2018-12-16T20:07:24.377Z,48.20
2018-12-16T20:09:50.387Z,45.70
2018-12-16T20:12:16.681Z,47.30
2018-12-16T20:14:43.266Z,50.30
2018-12-16T20:17:09.316Z,44.23
2018-12-16T20:19:35.266Z,53.57
2018-12-16T20:22:01.259Z,49.33
2018-12-16T20:24:27.314Z,52.27
2018-12-16T20:26:53.277Z,57.57
2018-12-16T20:29:19.182Z,53.97
2018-12-16T20:31:45.096Z,46.53
2018-12-16T20:34:11.154Z,47.90
2018-12-16T20:36:37.068Z,46.80
2018-12-16T20:39:04.801Z,47.80
2018-12-16T20:41:30.755Z,53.57
2018-12-16T20:44:03.780Z,46.07
2018-12-16T20:46:29.768Z,50.37
2018-12-16T20:48:55.770Z,48.03
2018-12-16T20:51:21.614Z,43.47
2018-12-16T20:53:47.514Z,48.17
2018-12-16T20:56:13.586Z,47.90
2018-12-16T20:58:39.515Z,46.10
2018-12-16T21:01:05.552Z,51.80
2018-12-16T21:03:31.475Z,49.47
2018-12-16T21:05:57.373Z,48.30
2018-12-16T21:08:23.299Z,58.03
2018-12-16T21:10:49.207Z,66.80
2018-12-16T21:13:21.299Z,63.33
2018-12-16T21:15:53.346Z,57.47
2018-12-16T21:18:21.998Z,54.47
2018-12-16T21:20:47.863Z,50.67
2018-12-16T21:23:13.710Z,67.43
2018-12-16T21:25:40.121Z,55.67
2018-12-16T21:28:06.223Z,51.43
2018-12-16T21:30:32.425Z,57.40
2018-12-16T21:33:00.201Z,58.80
2018-12-16T21:35:26.166Z,50.50
2018-12-16T21:37:52.046Z,52.73
2018-12-16T21:40:18.058Z,44.53
2018-12-16T21:42:43.923Z,56.43
2018-12-16T21:45:09.794Z,59.20
2018-12-16T21:47:35.681Z,59.43
2018-12-16T21:50:02.342Z,58.57
2018-12-16T21:52:28.222Z,59.97
2018-12-16T21:54:54.377Z,56.90
2018-12-16T21:57:20.403Z,62.93
2018-12-16T21:59:46.313Z,61.20
2018-12-16T22:02:12.204Z,55.90
2018-12-16T22:04:38.320Z,52.00
2018-12-16T22:07:04.255Z,50.27
2018-12-16T22:09:30.262Z,50.77
2018-12-16T22:11:56.126Z,51.00
2018-12-16T22:14:22.051Z,46.63
2018-12-16T22:16:47.967Z,55.17
2018-12-16T22:19:13.811Z,46.87
2018-12-16T22:21:39.808Z,43.00
2018-12-16T22:24:06.227Z,49.93
2018-12-16T22:26:32.411Z,57.53
2018-12-16T22:28:58.259Z,51.63
2018-12-16T22:31:25.125Z,55.90
2018-12-16T22:33:51.124Z,59.10
2018-12-16T22:36:17.452Z,63.17
2018-12-16T22:38:43.403Z,61.77
2018-12-16T22:41:09.264Z,59.73
2018-12-16T22:43:35.165Z,61.30
2018-12-16T22:46:03.919Z,52.93
2018-12-16T22:48:29.875Z,57.07
2018-12-16T22:50:55.782Z,54.23
2018-12-16T22:53:21.628Z,56.43
2018-12-16T22:55:47.603Z,52.70
2018-12-16T22:58:13.566Z,53.30
2018-12-16T23:00:47.780Z,49.70
2018-12-16T23:03:13.681Z,65.13
2018-12-16T23:05:39.522Z,70.13
2018-12-16T23:08:05.384Z,71.47
2018-12-16T23:10:31.261Z,63.97
2018-12-16T23:12:57.182Z,67.60
2018-12-16T23:15:23.093Z,73.60
2018-12-16T23:17:48.956Z,67.00
2018-12-16T23:20:17.229Z,67.97
2018-12-16T23:22:43.099Z,77.17
2018-12-16T23:25:09.459Z,71.77
2018-12-16T23:27:35.379Z,87.43
2018-12-16T23:30:01.298Z,71.47
2018-12-16T23:32:27.158Z,72.03
2018-12-16T23:34:53.061Z,72.73
2018-12-16T23:37:18.930Z,73.30
2018-12-16T23:39:44.787Z,84.77
2018-12-16T23:42:10.625Z,75.93
2018-12-16T23:44:36.746Z,80.23
2018-12-16T23:47:02.582Z,65.47
2018-12-16T23:49:28.460Z,75.17
2018-12-16T23:51:54.315Z,84.17
2018-12-16T23:54:20.145Z,81.27
2018-12-16T23:56:46.109Z,89.87
2018-12-16T23:59:11.971Z,84.80
